<?xml version='1.0' encoding='UTF-8'?><gpx version="1.1" creator="JPX - https://github.com/jenetics/jpx" xmlns="http://www.topografix.com/GPX/1/1"><trk><trkseg><trkpt lat="43.35359821355785" lon="10.838847363343758"><ele>162.0</ele><time>2026-04-18T08:07:58Z</time></trkpt><trkpt lat="43.353599851719636" lon="10.838944012425799"><ele>162.0</ele><time>2026-04-18T08:08:04Z</time></trkpt><trkpt lat="43.35360167880001" lon="10.83903238587166"><ele>162.0</ele><time>2026-04-18T08:08:11Z</time></trkpt><trkpt lat="43.353624764101184" lon="10.83913763584453"><ele>162.0</ele><time>2026-04-18T08:08:20Z</time></trkpt><trkpt lat="43.35363827750555" lon="10.839226741744774"><ele>162.0</ele><time>2026-04-18T08:08:25Z</time></trkpt><trkpt lat="43.35365153266471" lon="10.839322622637747"><ele>162.0</ele><time>2026-04-18T08:08:33Z</time></trkpt><trkpt lat="43.35362037755253" lon="10.839407022023133"><ele>162.0</ele><time>2026-04-18T08:08:39Z</time></trkpt><trkpt lat="43.35358035795868" lon="10.839475170695978"><ele>161.71428571428572</ele><time>2026-04-18T08:08:44.999Z</time></trkpt><trkpt lat="43.35351881807768" lon="10.839506260081608"><ele>161.42857142857142</ele><time>2026-04-18T08:08:51.999Z</time></trkpt><trkpt lat="43.35345566306267" lon="10.839524904347302"><ele>161.14285714285714</ele><time>2026-04-18T08:08:59.999Z</time></trkpt><trkpt lat="43.35339580045186" lon="10.83956008977032"><ele>160.85714285714286</ele><time>2026-04-18T08:09:07.999Z</time></trkpt><trkpt lat="43.353332715457" lon="10.839557676208122"><ele>160.57142857142858</ele><time>2026-04-18T08:09:17.999Z</time></trkpt><trkpt lat="43.353285897735674" lon="10.83949366929411"><ele>160.28571428571428</ele><time>2026-04-18T08:09:26.999Z</time></trkpt><trkpt lat="43.35328024403664" lon="10.839400826192037"><ele>160.0</ele><time>2026-04-18T08:10:13Z</time></trkpt><trkpt lat="43.35328669359564" lon="10.839314134386541"><ele>160.28571428571428</ele><time>2026-04-18T08:11:14.999Z</time></trkpt><trkpt lat="43.353323616919155" lon="10.839221255467505"><ele>160.57142857142858</ele><time>2026-04-18T08:11:26.999Z</time></trkpt><trkpt lat="43.353373520480794" lon="10.839144307992548"><ele>160.85714285714286</ele><time>2026-04-18T08:11:34.999Z</time></trkpt><trkpt lat="43.35341788895523" lon="10.839080158141543"><ele>161.14285714285714</ele><time>2026-04-18T08:11:41.999Z</time></trkpt><trkpt lat="43.35345058222394" lon="10.83899537280075"><ele>161.42857142857142</ele><time>2026-04-18T08:11:49.999Z</time></trkpt><trkpt lat="43.35339339998921" lon="10.838948427292992"><ele>161.71428571428572</ele><time>2026-04-18T08:12:00Z</time></trkpt><trkpt lat="43.35332174370606" lon="10.83896684276489"><ele>162.0</ele><time>2026-04-18T08:12:08Z</time></trkpt><trkpt lat="43.35325628870714" lon="10.839008749532944"><ele>162.0</ele><time>2026-04-18T08:12:16Z</time></trkpt><trkpt lat="43.353192689598565" lon="10.839007295250475"><ele>162.0</ele><time>2026-04-18T08:12:25Z</time></trkpt><trkpt lat="43.35315229729949" lon="10.839078821468192"><ele>162.0</ele><time>2026-04-18T08:12:31Z</time></trkpt><trkpt lat="43.35312562036724" lon="10.839165485595403"><ele>162.0</ele><time>2026-04-18T08:12:36Z</time></trkpt><trkpt lat="43.35309711127079" lon="10.839248880265002"><ele>162.0</ele><time>2026-04-18T08:12:41Z</time></trkpt><trkpt lat="43.35308684892849" lon="10.839335261551517"><ele>162.0</ele><time>2026-04-18T08:12:47Z</time></trkpt><trkpt lat="43.35309362532531" lon="10.839445338071627"><ele>162.0</ele><time>2026-04-18T08:12:53Z</time></trkpt><trkpt lat="43.35308542013677" lon="10.839534146680004"><ele>161.71428571428572</ele><time>2026-04-18T08:13:01.999Z</time></trkpt><trkpt lat="43.353139163612575" lon="10.83959463601029"><ele>161.42857142857142</ele><time>2026-04-18T08:13:11.999Z</time></trkpt><trkpt lat="43.35320851677674" lon="10.839585361685637"><ele>161.14285714285714</ele><time>2026-04-18T08:13:20.999Z</time></trkpt><trkpt lat="43.35325151364342" lon="10.839652094335227"><ele>160.85714285714286</ele><time>2026-04-18T08:13:27.999Z</time></trkpt><trkpt lat="43.35318624858495" lon="10.839668557971489"><ele>160.57142857142858</ele><time>2026-04-18T08:13:37.999Z</time></trkpt><trkpt lat="43.353123031321005" lon="10.839681876148623"><ele>160.28571428571428</ele><time>2026-04-18T08:13:59.999Z</time></trkpt><trkpt lat="43.35309032686239" lon="10.839767210382607"><ele>160.0</ele><time>2026-04-18T08:14:11Z</time></trkpt><trkpt lat="43.35309193499141" lon="10.839857116183381"><ele>160.0</ele><time>2026-04-18T08:14:17Z</time></trkpt><trkpt lat="43.353097521984324" lon="10.839944032685656"><ele>160.0</ele><time>2026-04-18T08:14:23Z</time></trkpt><trkpt lat="43.35314541983731" lon="10.840008421093989"><ele>160.0</ele><time>2026-04-18T08:14:29Z</time></trkpt><trkpt lat="43.353202174297756" lon="10.839954563249165"><ele>160.0</ele><time>2026-04-18T08:14:40Z</time></trkpt><trkpt lat="43.353240323108125" lon="10.839864624297133"><ele>160.0</ele><time>2026-04-18T08:14:47Z</time></trkpt><trkpt lat="43.35328246383644" lon="10.839794135261025"><ele>160.0</ele><time>2026-04-18T08:14:53Z</time></trkpt><trkpt lat="43.353335631292055" lon="10.839746910993766"><ele>160.0</ele><time>2026-04-18T08:15:00Z</time></trkpt><trkpt lat="43.35335559810144" lon="10.839655775984975"><ele>160.0</ele><time>2026-04-18T08:15:28.999Z</time></trkpt><trkpt lat="43.35342333106965" lon="10.839633716254522"><ele>160.0</ele><time>2026-04-18T08:15:35.999Z</time></trkpt><trkpt lat="43.3534875169255" lon="10.839628169345449"><ele>160.0</ele><time>2026-04-18T08:15:48.999Z</time></trkpt><trkpt lat="43.353547890995564" lon="10.839668710346977"><ele>160.0</ele><time>2026-04-18T08:15:54.999Z</time></trkpt><trkpt lat="43.35359211711514" lon="10.839734528018322"><ele>160.0</ele><time>2026-04-18T08:16:01.999Z</time></trkpt><trkpt lat="43.35356463514618" lon="10.83981693567289"><ele>160.0</ele><time>2026-04-18T08:16:10Z</time></trkpt><trkpt lat="43.35349322416825" lon="10.839826755589783"><ele>160.0</ele><time>2026-04-18T08:16:15Z</time></trkpt><trkpt lat="43.35342666417714" lon="10.839829926896211"><ele>160.0</ele><time>2026-04-18T08:16:21Z</time></trkpt><trkpt lat="43.35335536656022" lon="10.839864658948807"><ele>160.0</ele><time>2026-04-18T08:16:27Z</time></trkpt><trkpt lat="43.35329441891246" lon="10.839886840125837"><ele>160.0</ele><time>2026-04-18T08:16:34Z</time></trkpt><trkpt lat="43.35327130420741" lon="10.839971546533041"><ele>160.0</ele><time>2026-04-18T08:16:41Z</time></trkpt><trkpt lat="43.35329006311674" lon="10.840061632423126"><ele>160.0</ele><time>2026-04-18T08:16:50Z</time></trkpt><trkpt lat="43.35334559975346" lon="10.840102790618767"><ele>160.0</ele><time>2026-04-18T08:17:00Z</time></trkpt><trkpt lat="43.353404729089526" lon="10.84014794447576"><ele>160.0</ele><time>2026-04-18T08:17:06Z</time></trkpt><trkpt lat="43.35345041815306" lon="10.840224930587718"><ele>159.42857142857142</ele><time>2026-04-18T08:17:22Z</time></trkpt><trkpt lat="43.35345411536675" lon="10.840319266406015"><ele>158.85714285714286</ele><time>2026-04-18T08:17:29.999Z</time></trkpt><trkpt lat="43.35338406148713" lon="10.840349514851964"><ele>158.28571428571428</ele><time>2026-04-18T08:17:36.999Z</time></trkpt><trkpt lat="43.35330868871301" lon="10.840350558116375"><ele>157.71428571428572</ele><time>2026-04-18T08:17:42.999Z</time></trkpt><trkpt lat="43.3532453896358" lon="10.840381840574668"><ele>157.14285714285714</ele><time>2026-04-18T08:17:48.999Z</time></trkpt><trkpt lat="43.35321827937039" lon="10.84047361437501"><ele>156.57142857142858</ele><time>2026-04-18T08:18:00.999Z</time></trkpt><trkpt lat="43.35319752807118" lon="10.840560477770671"><ele>156.0</ele><time>2026-04-18T08:18:07.999Z</time></trkpt><trkpt lat="43.3531674995468" lon="10.840651110593242"><ele>156.0</ele><time>2026-04-18T08:18:15Z</time></trkpt><trkpt lat="43.35314827325326" lon="10.8407356727976"><ele>156.0</ele><time>2026-04-18T08:18:22Z</time></trkpt><trkpt lat="43.35312775180823" lon="10.84083742191006"><ele>156.0</ele><time>2026-04-18T08:18:29Z</time></trkpt><trkpt lat="43.35310943369154" lon="10.84092752533429"><ele>156.0</ele><time>2026-04-18T08:18:36Z</time></trkpt><trkpt lat="43.3530990103946" lon="10.841020921746484"><ele>156.0</ele><time>2026-04-18T08:18:42Z</time></trkpt><trkpt lat="43.35310056852609" lon="10.841119659101063"><ele>156.0</ele><time>2026-04-18T08:18:49Z</time></trkpt><trkpt lat="43.35310378806386" lon="10.841209158976577"><ele>156.0</ele><time>2026-04-18T08:18:55Z</time></trkpt><trkpt lat="43.35311481726351" lon="10.841296458494456"><ele>156.57142857142858</ele><time>2026-04-18T08:19:02Z</time></trkpt><trkpt lat="43.353113262964115" lon="10.841390764303807"><ele>157.14285714285714</ele><time>2026-04-18T08:19:09Z</time></trkpt><trkpt lat="43.353118513034936" lon="10.841482576731805"><ele>157.71428571428572</ele><time>2026-04-18T08:19:15Z</time></trkpt><trkpt lat="43.353131287679034" lon="10.841571433144745"><ele>158.28571428571428</ele><time>2026-04-18T08:19:20Z</time></trkpt><trkpt lat="43.35311899635327" lon="10.841665591142421"><ele>158.85714285714286</ele><time>2026-04-18T08:19:26.999Z</time></trkpt><trkpt lat="43.35311773008668" lon="10.841752558734033"><ele>159.42857142857142</ele><time>2026-04-18T08:19:38.999Z</time></trkpt><trkpt lat="43.3531069185476" lon="10.841842334408044"><ele>160.0</ele><time>2026-04-18T08:19:46.999Z</time></trkpt><trkpt lat="43.353096921235334" lon="10.841928454104812"><ele>160.57142857142856</ele><time>2026-04-18T08:19:54.999Z</time></trkpt><trkpt lat="43.35312171504458" lon="10.842012591430892"><ele>161.14285714285714</ele><time>2026-04-18T08:20:04.999Z</time></trkpt><trkpt lat="43.35313942593286" lon="10.842098627567692"><ele>161.71428571428572</ele><time>2026-04-18T08:20:13.999Z</time></trkpt><trkpt lat="43.35316709329512" lon="10.842185927647764"><ele>162.28571428571428</ele><time>2026-04-18T08:20:20.999Z</time></trkpt><trkpt lat="43.35318773348653" lon="10.842280991623806"><ele>162.85714285714286</ele><time>2026-04-18T08:20:27.999Z</time></trkpt><trkpt lat="43.35322778164458" lon="10.842366122521563"><ele>163.42857142857142</ele><time>2026-04-18T08:20:39Z</time></trkpt><trkpt lat="43.3532161231214" lon="10.842460997295124"><ele>164.0</ele><time>2026-04-18T08:20:53Z</time></trkpt><trkpt lat="43.35315284497515" lon="10.842472760940904"><ele>163.99999999999997</ele><time>2026-04-18T08:21:03Z</time></trkpt><trkpt lat="43.35310005293191" lon="10.842417277278683"><ele>164.0</ele><time>2026-04-18T08:21:11Z</time></trkpt><trkpt lat="43.353072835695095" lon="10.842332935906436"><ele>164.0</ele><time>2026-04-18T08:21:19.999Z</time></trkpt><trkpt lat="43.35304533774915" lon="10.842247212486525"><ele>164.0</ele><time>2026-04-18T08:21:27.999Z</time></trkpt><trkpt lat="43.353026944832365" lon="10.842159768553023"><ele>164.0</ele><time>2026-04-18T08:21:36.999Z</time></trkpt><trkpt lat="43.353033855578616" lon="10.842068436446308"><ele>163.99999999999997</ele><time>2026-04-18T08:21:44.999Z</time></trkpt><trkpt lat="43.353004278572456" lon="10.841979922281748"><ele>164.0</ele><time>2026-04-18T08:21:50.999Z</time></trkpt><trkpt lat="43.3529831237148" lon="10.84187578092398"><ele>161.42857142857142</ele><time>2026-04-18T08:21:56.999Z</time></trkpt><trkpt lat="43.35296933398271" lon="10.841781556436139"><ele>158.85714285714286</ele><time>2026-04-18T08:22:03.999Z</time></trkpt><trkpt lat="43.3529568056263" lon="10.841680732189927"><ele>156.28571428571428</ele><time>2026-04-18T08:22:10.999Z</time></trkpt><trkpt lat="43.35294496935425" lon="10.84158115414562"><ele>153.71428571428572</ele><time>2026-04-18T08:22:17.999Z</time></trkpt><trkpt lat="43.35295143515151" lon="10.841486068346843"><ele>151.14285714285714</ele><time>2026-04-18T08:22:23.999Z</time></trkpt><trkpt lat="43.352966065225594" lon="10.84139272988567"><ele>148.57142857142856</ele><time>2026-04-18T08:22:33Z</time></trkpt><trkpt lat="43.3529995486831" lon="10.841312117729174"><ele>146.0</ele><time>2026-04-18T08:22:41Z</time></trkpt><trkpt lat="43.35302870211094" lon="10.841226834858224"><ele>146.0</ele><time>2026-04-18T08:22:47Z</time></trkpt><trkpt lat="43.35304788025913" lon="10.841140856878415"><ele>146.0</ele><time>2026-04-18T08:22:54Z</time></trkpt><trkpt lat="43.353032010008405" lon="10.841054626825347"><ele>146.0</ele><time>2026-04-18T08:23:31Z</time></trkpt><trkpt lat="43.35300040869453" lon="10.840973918376834"><ele>146.0</ele><time>2026-04-18T08:23:46Z</time></trkpt><trkpt lat="43.352932565633154" lon="10.840940336058875"><ele>146.0</ele><time>2026-04-18T08:23:53Z</time></trkpt><trkpt lat="43.35286173240053" lon="10.840937610338864"><ele>146.0</ele><time>2026-04-18T08:24:02.999Z</time></trkpt><trkpt lat="43.35271872476093" lon="10.840924672008303"><ele>145.71428571428572</ele><time>2026-04-18T08:24:53Z</time></trkpt><trkpt lat="43.35268910958334" lon="10.84084291184874"><ele>145.42857142857144</ele><time>2026-04-18T08:25:01Z</time></trkpt><trkpt lat="43.35269156917282" lon="10.840746703420223"><ele>145.14285714285717</ele><time>2026-04-18T08:25:08Z</time></trkpt><trkpt lat="43.3526843455139" lon="10.84065323146762"><ele>144.85714285714286</ele><time>2026-04-18T08:25:16Z</time></trkpt><trkpt lat="43.352698077186346" lon="10.840539398206872"><ele>144.57142857142858</ele><time>2026-04-18T08:25:29Z</time></trkpt><trkpt lat="43.352683830890356" lon="10.84045006139317"><ele>144.2857142857143</ele><time>2026-04-18T08:26:26.999Z</time></trkpt><trkpt lat="43.352650455211354" lon="10.840372432802933"><ele>144.0</ele><time>2026-04-18T08:27:15Z</time></trkpt><trkpt lat="43.35259796434443" lon="10.840323461578604"><ele>144.00000000000003</ele><time>2026-04-18T08:27:33Z</time></trkpt><trkpt lat="43.35256359628582" lon="10.8402444127878"><ele>144.0</ele><time>2026-04-18T08:27:39Z</time></trkpt><trkpt lat="43.35252697613608" lon="10.840166473937169"><ele>144.0</ele><time>2026-04-18T08:27:45Z</time></trkpt><trkpt lat="43.35248686456388" lon="10.840085927681239"><ele>144.0</ele><time>2026-04-18T08:27:51Z</time></trkpt><trkpt lat="43.35242444092822" lon="10.840047171039505"><ele>144.0</ele><time>2026-04-18T08:27:56Z</time></trkpt><trkpt lat="43.35236062963133" lon="10.840047041076717"><ele>144.00000000000003</ele><time>2026-04-18T08:28:02Z</time></trkpt><trkpt lat="43.35229098467077" lon="10.840044133378036"><ele>144.0</ele><time>2026-04-18T08:28:07.999Z</time></trkpt><trkpt lat="43.35222190469295" lon="10.840039589195536"><ele>143.00000000000003</ele><time>2026-04-18T08:28:13.999Z</time></trkpt><trkpt lat="43.352163817376756" lon="10.840073833417168"><ele>142.0</ele><time>2026-04-18T08:28:18.999Z</time></trkpt><trkpt lat="43.3520953306667" lon="10.840097017764068"><ele>141.0</ele><time>2026-04-18T08:28:26.999Z</time></trkpt><trkpt lat="43.35204181495882" lon="10.840039026904803"><ele>140.0</ele><time>2026-04-18T08:28:33.999Z</time></trkpt><trkpt lat="43.351999264615884" lon="10.839954760325103"><ele>139.0</ele><time>2026-04-18T08:28:40.999Z</time></trkpt><trkpt lat="43.35195361266075" lon="10.839889015262647"><ele>138.00000000000003</ele><time>2026-04-18T08:28:46Z</time></trkpt><trkpt lat="43.35192185220263" lon="10.83980918940556"><ele>137.0</ele><time>2026-04-18T08:28:52Z</time></trkpt><trkpt lat="43.35197696886553" lon="10.839756914402834"><ele>137.00000000000003</ele><time>2026-04-18T08:29:00Z</time></trkpt><trkpt lat="43.352039191612484" lon="10.839731361071202"><ele>137.0</ele><time>2026-04-18T08:29:07Z</time></trkpt><trkpt lat="43.35209852367259" lon="10.839696146525784"><ele>137.0</ele><time>2026-04-18T08:29:15Z</time></trkpt><trkpt lat="43.352165784179654" lon="10.839728376561402"><ele>137.0</ele><time>2026-04-18T08:29:28Z</time></trkpt><trkpt lat="43.35223117751271" lon="10.83981405268149"><ele>137.0</ele><time>2026-04-18T08:29:40Z</time></trkpt><trkpt lat="43.352290171096186" lon="10.839867781602978"><ele>137.00000000000003</ele><time>2026-04-18T08:29:47Z</time></trkpt><trkpt lat="43.35235603502371" lon="10.839863069109294"><ele>137.0</ele><time>2026-04-18T08:29:54Z</time></trkpt><trkpt lat="43.35242254955595" lon="10.839836090671987"><ele>138.57142857142858</ele><time>2026-04-18T08:30:04Z</time></trkpt><trkpt lat="43.35247906271047" lon="10.839792365751848"><ele>140.14285714285714</ele><time>2026-04-18T08:30:13.999Z</time></trkpt><trkpt lat="43.352558137824076" lon="10.839779209020914"><ele>141.71428571428572</ele><time>2026-04-18T08:30:56Z</time></trkpt><trkpt lat="43.352625200579546" lon="10.839789636292094"><ele>143.28571428571428</ele><time>2026-04-18T08:31:04Z</time></trkpt><trkpt lat="43.352688222782454" lon="10.839787705488995"><ele>144.85714285714286</ele><time>2026-04-18T08:31:10Z</time></trkpt><trkpt lat="43.35275894877698" lon="10.83975494302361"><ele>146.42857142857144</ele><time>2026-04-18T08:31:42Z</time></trkpt><trkpt lat="43.352813596628614" lon="10.839704355847848"><ele>148.0</ele><time>2026-04-18T08:31:49Z</time></trkpt><trkpt lat="43.352872439530984" lon="10.839664205982812"><ele>148.0</ele><time>2026-04-18T08:32:07.999Z</time></trkpt><trkpt lat="43.35293621447504" lon="10.83962518033085"><ele>148.0</ele><time>2026-04-18T08:32:27.999Z</time></trkpt><trkpt lat="43.35298133788879" lon="10.839557621649409"><ele>148.0</ele><time>2026-04-18T08:32:35.999Z</time></trkpt><trkpt lat="43.353007837225896" lon="10.839461873625664"><ele>148.0</ele><time>2026-04-18T08:32:42.999Z</time></trkpt><trkpt lat="43.35302754501093" lon="10.839370401086963"><ele>148.0</ele><time>2026-04-18T08:32:51.999Z</time></trkpt><trkpt lat="43.35302133253055" lon="10.839280457520022"><ele>148.0</ele><time>2026-04-18T08:33:01Z</time></trkpt><trkpt lat="43.353021583725116" lon="10.839183991853083"><ele>148.0</ele><time>2026-04-18T08:33:08Z</time></trkpt><trkpt lat="43.3530138673801" lon="10.839090809661528"><ele>148.14285714285714</ele><time>2026-04-18T08:33:14Z</time></trkpt><trkpt lat="43.35302019640753" lon="10.83900083060187"><ele>148.28571428571428</ele><time>2026-04-18T08:33:22Z</time></trkpt><trkpt lat="43.35298122328177" lon="10.838913991126372"><ele>148.42857142857142</ele><time>2026-04-18T08:33:29Z</time></trkpt><trkpt lat="43.352914363768775" lon="10.83890693620525"><ele>148.57142857142856</ele><time>2026-04-18T08:33:37Z</time></trkpt><trkpt lat="43.35284901442117" lon="10.83896018130391"><ele>148.7142857142857</ele><time>2026-04-18T08:33:47Z</time></trkpt><trkpt lat="43.35279180135251" lon="10.838998607509664"><ele>148.85714285714286</ele><time>2026-04-18T08:33:54Z</time></trkpt><trkpt lat="43.35273975090941" lon="10.839055081730676"><ele>149.0</ele><time>2026-04-18T08:34:01Z</time></trkpt><trkpt lat="43.35269959334617" lon="10.839134739753076"><ele>149.0</ele><time>2026-04-18T08:34:07.999Z</time></trkpt><trkpt lat="43.3526667052001" lon="10.83921113597451"><ele>149.0</ele><time>2026-04-18T08:34:14.999Z</time></trkpt><trkpt lat="43.35262439300819" lon="10.839283870613675"><ele>149.0</ele><time>2026-04-18T08:34:23.999Z</time></trkpt><trkpt lat="43.35257896971677" lon="10.839354993360313"><ele>149.0</ele><time>2026-04-18T08:34:31.999Z</time></trkpt><trkpt lat="43.35254798546164" lon="10.839438374879029"><ele>149.0</ele><time>2026-04-18T08:34:38.999Z</time></trkpt><trkpt lat="43.3524971940936" lon="10.839508535475119"><ele>149.0</ele><time>2026-04-18T08:34:45.999Z</time></trkpt><trkpt lat="43.35244912291312" lon="10.839565122499936"><ele>149.0</ele><time>2026-04-18T08:35:08Z</time></trkpt><trkpt lat="43.35240140238385" lon="10.839497979589561"><ele>148.85714285714286</ele><time>2026-04-18T08:35:14Z</time></trkpt><trkpt lat="43.35235484103327" lon="10.839436994356253"><ele>148.7142857142857</ele><time>2026-04-18T08:35:24Z</time></trkpt><trkpt lat="43.35228600432489" lon="10.839425767108976"><ele>148.57142857142856</ele><time>2026-04-18T08:35:31Z</time></trkpt><trkpt lat="43.35222451637392" lon="10.839453716810462"><ele>148.42857142857142</ele><time>2026-04-18T08:35:37Z</time></trkpt><trkpt lat="43.35215186340227" lon="10.839475237011476"><ele>148.28571428571428</ele><time>2026-04-18T08:35:43Z</time></trkpt><trkpt lat="43.35208229241035" lon="10.839492392580013"><ele>148.14285714285714</ele><time>2026-04-18T08:35:50Z</time></trkpt><trkpt lat="43.35202483452044" lon="10.839530315243543"><ele>148.0</ele><time>2026-04-18T08:35:55Z</time></trkpt><trkpt lat="43.35197021432954" lon="10.839593289728455"><ele>146.42857142857144</ele><time>2026-04-18T08:36:01Z</time></trkpt><trkpt lat="43.35196388577414" lon="10.839501099493358"><ele>144.85714285714286</ele><time>2026-04-18T08:36:11.999Z</time></trkpt><trkpt lat="43.35194272901123" lon="10.839414705001872"><ele>143.28571428571428</ele><time>2026-04-18T08:36:18.999Z</time></trkpt><trkpt lat="43.35191992648802" lon="10.839325383634542"><ele>141.71428571428572</ele><time>2026-04-18T08:36:28.999Z</time></trkpt><trkpt lat="43.35188848908034" lon="10.839240440168155"><ele>140.14285714285714</ele><time>2026-04-18T08:36:36.999Z</time></trkpt><trkpt lat="43.35188162257786" lon="10.839152136173594"><ele>138.57142857142858</ele><time>2026-04-18T08:36:44.999Z</time></trkpt><trkpt lat="43.35191065358085" lon="10.839071489499677"><ele>137.0</ele><time>2026-04-18T08:36:52.999Z</time></trkpt><trkpt lat="43.35196728268843" lon="10.839027120710018"><ele>136.85714285714286</ele><time>2026-04-18T08:37:01.999Z</time></trkpt><trkpt lat="43.35202994525718" lon="10.83898558178875"><ele>136.71428571428572</ele><time>2026-04-18T08:37:10Z</time></trkpt><trkpt lat="43.35209761458027" lon="10.838950445998352"><ele>136.57142857142856</ele><time>2026-04-18T08:37:20Z</time></trkpt><trkpt lat="43.35215339617681" lon="10.839007179839617"><ele>136.42857142857144</ele><time>2026-04-18T08:37:29Z</time></trkpt><trkpt lat="43.35221936244179" lon="10.839033242126083"><ele>136.28571428571428</ele><time>2026-04-18T08:38:01Z</time></trkpt><trkpt lat="43.3522757390711" lon="10.83907471984665"><ele>136.14285714285714</ele><time>2026-04-18T08:38:08Z</time></trkpt><trkpt lat="43.352343118327695" lon="10.839135070320472"><ele>136.0</ele><time>2026-04-18T08:38:16.999Z</time></trkpt><trkpt lat="43.35240566525238" lon="10.839180189642018"><ele>138.16666666666669</ele><time>2026-04-18T08:38:24.999Z</time></trkpt><trkpt lat="43.35255194410635" lon="10.839197295356874"><ele>140.33333333333334</ele><time>2026-04-18T08:39:39Z</time></trkpt><trkpt lat="43.35260820057256" lon="10.839139312098801"><ele>142.5</ele><time>2026-04-18T08:39:49Z</time></trkpt><trkpt lat="43.35266043832107" lon="10.839084826008888"><ele>144.66666666666666</ele><time>2026-04-18T08:40:10Z</time></trkpt><trkpt lat="43.35270210844512" lon="10.839010497988108"><ele>146.83333333333331</ele><time>2026-04-18T08:40:19Z</time></trkpt><trkpt lat="43.35273928249551" lon="10.838938893452186"><ele>149.0</ele><time>2026-04-18T08:40:59.999Z</time></trkpt><trkpt lat="43.3528099473528" lon="10.838891908649687"><ele>149.0</ele><time>2026-04-18T08:41:20Z</time></trkpt><trkpt lat="43.35287367366344" lon="10.83884262066575"><ele>149.0</ele><time>2026-04-18T08:41:39Z</time></trkpt><trkpt lat="43.35292932206367" lon="10.838786703263459"><ele>149.0</ele><time>2026-04-18T08:41:46Z</time></trkpt><trkpt lat="43.35299071599487" lon="10.838759080759877"><ele>149.0</ele><time>2026-04-18T08:41:54Z</time></trkpt><trkpt lat="43.353063668187055" lon="10.838773259170837"><ele>149.0</ele><time>2026-04-18T08:42:03Z</time></trkpt><trkpt lat="43.35312911472734" lon="10.838806118616787"><ele>149.0</ele><time>2026-04-18T08:42:15Z</time></trkpt><trkpt lat="43.35316796552582" lon="10.838882733238869"><ele>149.0</ele><time>2026-04-18T08:42:28.999Z</time></trkpt><trkpt lat="43.35323878963768" lon="10.838914006433862"><ele>150.71428571428572</ele><time>2026-04-18T08:42:36.999Z</time></trkpt><trkpt lat="43.35329644095401" lon="10.838851252419385"><ele>152.42857142857142</ele><time>2026-04-18T08:42:43.999Z</time></trkpt><trkpt lat="43.35334485839112" lon="10.838778184921424"><ele>154.14285714285714</ele><time>2026-04-18T08:42:52.999Z</time></trkpt><trkpt lat="43.353395098237016" lon="10.8387109819035"><ele>155.85714285714286</ele><time>2026-04-18T08:43:00.999Z</time></trkpt><trkpt lat="43.35344963685707" lon="10.838641290280924"><ele>157.57142857142856</ele><time>2026-04-18T08:43:11.999Z</time></trkpt><trkpt lat="43.35348564952322" lon="10.83856406842046"><ele>159.28571428571428</ele><time>2026-04-18T08:43:27Z</time></trkpt><trkpt lat="43.35349233555404" lon="10.838465137997984"><ele>161.0</ele><time>2026-04-18T08:43:34Z</time></trkpt><trkpt lat="43.353504579967584" lon="10.838379909835181"><ele>161.0</ele><time>2026-04-18T08:43:42Z</time></trkpt><trkpt lat="43.353568503228374" lon="10.838335236961166"><ele>161.0</ele><time>2026-04-18T08:43:52Z</time></trkpt><trkpt lat="43.3536309055456" lon="10.838316656853216"><ele>161.0</ele><time>2026-04-18T08:44:02Z</time></trkpt></trkseg></trk></gpx>